createdAt,value
2022-08-17T00:03:17.502Z,99766.19
2022-08-17T00:06:29.056Z,99773.75
2022-08-17T00:09:38.410Z,99784.34
2022-08-17T00:12:46.357Z,99776.91
2022-08-17T00:15:57.145Z,99778.53
2022-08-17T00:19:08.505Z,99784.91
2022-08-17T00:22:33.672Z,99778.66
2022-08-17T00:25:46.496Z,99781.66
2022-08-17T00:28:52.635Z,99785.84
2022-08-17T00:31:59.065Z,99781.22
2022-08-17T00:35:08.924Z,99775.53
2022-08-17T00:38:15.067Z,99781.81
2022-08-17T00:41:24.518Z,99779.94
2022-08-17T00:44:30.452Z,99778.44
2022-08-17T00:47:36.937Z,99774.28
2022-08-17T00:50:48.599Z,99772.41
2022-08-17T00:54:09.972Z,99768.12
2022-08-17T00:57:19.260Z,99768.72
2022-08-17T01:00:30.602Z,99769.28
2022-08-17T01:03:37.424Z,99774.25
2022-08-17T01:06:43.947Z,99769.94
2022-08-17T01:09:50.249Z,99767.75
2022-08-17T01:12:56.339Z,99770.41
2022-08-17T01:16:29.192Z,99770.75
2022-08-17T01:19:39.926Z,99776.34
2022-08-17T01:22:46.125Z,99792.22
2022-08-17T01:25:54.713Z,99782.72
2022-08-17T01:29:02.070Z,99782.94
2022-08-17T01:32:09.209Z,99783.50
2022-08-17T01:35:15.929Z,99788.97
2022-08-17T01:38:26.463Z,99789.53
2022-08-17T01:41:33.198Z,99781.44
2022-08-17T01:44:39.552Z,99786.97
2022-08-17T01:47:45.479Z,99794.63
2022-08-17T01:50:52.943Z,99790.00
2022-08-17T01:54:03.428Z,99791.22
2022-08-17T01:57:10.188Z,99791.47
2022-08-17T02:00:25.180Z,99793.78
2022-08-17T02:03:32.866Z,99789.41
2022-08-17T02:06:45.002Z,99790.53
2022-08-17T02:09:52.726Z,99786.44
2022-08-17T02:12:59.014Z,99784.81
2022-08-17T02:16:05.311Z,99788.37
2022-08-17T02:19:14.336Z,99799.28
2022-08-17T02:22:21.019Z,99803.06
2022-08-17T02:25:30.480Z,99794.94
2022-08-17T02:28:37.749Z,99795.41
2022-08-17T02:31:45.471Z,99795.94
2022-08-17T02:34:52.365Z,99799.38
2022-08-17T02:37:59.166Z,99797.53
2022-08-17T02:41:05.847Z,99801.81
2022-08-17T02:44:12.441Z,99798.13
2022-08-17T02:47:18.374Z,99804.47
2022-08-17T02:50:32.672Z,99799.75
2022-08-17T02:53:38.734Z,99808.41
2022-08-17T02:56:44.867Z,99798.94
2022-08-17T02:59:51.489Z,99796.09
2022-08-17T03:02:58.902Z,99786.34
2022-08-17T03:06:06.226Z,99796.88
2022-08-17T03:09:12.431Z,99793.63
2022-08-17T03:12:18.628Z,99796.06
2022-08-17T03:15:29.554Z,99793.88
2022-08-17T03:18:35.224Z,99808.56
2022-08-17T03:21:41.138Z,99810.41
2022-08-17T03:24:47.197Z,99801.38
2022-08-17T03:27:54.655Z,99804.63
2022-08-17T03:31:00.723Z,99806.69
2022-08-17T03:34:06.890Z,99808.56
2022-08-17T03:37:13.093Z,99816.16
2022-08-17T03:40:55.038Z,99814.31
2022-08-17T03:43:47.590Z,99818.63
2022-08-17T03:47:16.317Z,99814.09
2022-08-17T03:50:53.013Z,99809.13
2022-08-17T03:54:20.681Z,99816.91
2022-08-17T03:57:27.502Z,99826.75
2022-08-17T04:00:39.585Z,99829.41
2022-08-17T04:03:45.951Z,99821.19
2022-08-17T04:06:52.554Z,99825.47
2022-08-17T04:10:00.166Z,99822.44
2022-08-17T04:13:06.433Z,99820.59
2022-08-17T04:16:12.678Z,99823.03
2022-08-17T04:19:18.772Z,99830.12
2022-08-17T04:22:31.850Z,99827.63
2022-08-17T04:25:54.750Z,99824.44
2022-08-17T04:29:01.449Z,99829.44
2022-08-17T04:32:13.569Z,99846.75
2022-08-17T04:35:30.780Z,99848.03
2022-08-17T04:38:46.078Z,99845.69
2022-08-17T04:42:10.506Z,99843.09
2022-08-17T04:45:16.531Z,99841.41
2022-08-17T04:48:36.706Z,99850.59
2022-08-17T04:51:56.177Z,99849.09
2022-08-17T04:55:13.135Z,99851.19
2022-08-17T04:58:20.967Z,99852.31
2022-08-17T05:01:30.482Z,99854.97
2022-08-17T05:04:37.080Z,99858.25
2022-08-17T05:07:43.456Z,99849.00
2022-08-17T05:11:11.282Z,99853.12
2022-08-17T05:14:18.334Z,99858.97
2022-08-17T05:17:27.610Z,99865.66
2022-08-17T05:20:35.872Z,99861.19
2022-08-17T05:23:42.754Z,99864.19
2022-08-17T05:26:50.232Z,99865.34
2022-08-17T05:29:58.935Z,99865.66
2022-08-17T05:33:14.009Z,99869.44
2022-08-17T05:36:43.484Z,99866.94
2022-08-17T05:39:49.141Z,99863.37
2022-08-17T05:43:08.392Z,99867.97
2022-08-17T05:46:35.030Z,99862.50
2022-08-17T05:49:41.558Z,99862.44
2022-08-17T05:53:12.012Z,99863.66
2022-08-17T05:56:51.855Z,99863.28
2022-08-17T06:00:02.176Z,99865.53
2022-08-17T06:03:38.570Z,99861.63
2022-08-17T06:07:17.530Z,99867.09
2022-08-17T06:10:51.150Z,99868.50
2022-08-17T06:14:04.621Z,99869.16
2022-08-17T06:17:28.152Z,99867.09
2022-08-17T06:21:14.470Z,99858.81
2022-08-17T06:24:42.250Z,99865.13
2022-08-17T06:28:04.690Z,99860.31
2022-08-17T06:31:29.671Z,99867.84
2022-08-17T06:34:40.976Z,99862.03
2022-08-17T06:38:00.933Z,99864.72
2022-08-17T06:41:45.851Z,99866.88
2022-08-17T06:45:05.709Z,99863.63
2022-08-17T06:48:41.111Z,99870.09
2022-08-17T06:52:04.220Z,99873.06
2022-08-17T06:55:18.077Z,99871.91
2022-08-17T06:58:33.721Z,99872.66
2022-08-17T07:01:43.615Z,99875.81
2022-08-17T07:04:52.049Z,99871.66
2022-08-17T07:08:14.883Z,99876.09
2022-08-17T07:11:44.571Z,99880.94
2022-08-17T07:15:14.823Z,99881.63
2022-08-17T07:18:22.294Z,99879.00
2022-08-17T07:21:42.964Z,99877.00
2022-08-17T07:24:55.232Z,99892.84
2022-08-17T07:28:11.151Z,99892.50
2022-08-17T07:31:19.310Z,99892.91
2022-08-17T07:34:26.589Z,99887.94
2022-08-17T07:37:41.209Z,99885.94
2022-08-17T07:41:03.717Z,99887.81
2022-08-17T07:44:15.216Z,99885.81
2022-08-17T07:47:41.729Z,99885.53
2022-08-17T07:50:52.990Z,99887.72
2022-08-17T07:54:28.530Z,99886.37
2022-08-17T07:57:38.529Z,99888.53
2022-08-17T08:00:47.848Z,99887.31
2022-08-17T08:03:55.526Z,99884.91
2022-08-17T08:07:34.372Z,99891.25
2022-08-17T08:10:45.221Z,99894.25
2022-08-17T08:13:52.931Z,99889.91
2022-08-17T08:17:05.902Z,99892.66
2022-08-17T08:20:53.453Z,99893.91
2022-08-17T08:24:30.148Z,99898.88
2022-08-17T08:28:11.129Z,99896.19
2022-08-17T08:31:33.630Z,99893.47
2022-08-17T08:35:24.405Z,99883.72
2022-08-17T08:39:09.600Z,99882.91
2022-08-17T08:42:36.829Z,99890.84
2022-08-17T08:46:30.785Z,99889.97
2022-08-17T08:50:37.061Z,99890.31
2022-08-17T08:54:07.012Z,99891.41
2022-08-17T08:57:34.297Z,99883.25
2022-08-17T09:00:50.672Z,99884.84
2022-08-17T09:04:25.220Z,99889.19
2022-08-17T09:07:43.486Z,99891.06
2022-08-17T09:11:07.112Z,99881.16
2022-08-17T09:14:28.427Z,99882.88
2022-08-17T09:19:03.527Z,99877.78
2022-08-17T09:22:12.217Z,99885.28
2022-08-17T09:25:22.600Z,99887.47
2022-08-17T09:28:39.970Z,99891.66
2022-08-17T09:31:59.888Z,99890.88
2022-08-17T09:35:18.482Z,99892.16
2022-08-17T09:39:02.356Z,99893.31
2022-08-17T09:42:33.173Z,99893.38
2022-08-17T09:46:09.106Z,99892.34
2022-08-17T09:49:26.152Z,99890.19
2022-08-17T09:52:34.791Z,99892.91
2022-08-17T09:56:30.230Z,99882.91
2022-08-17T10:00:15.284Z,99882.06
2022-08-17T10:03:43.642Z,99871.50
2022-08-17T10:07:22.392Z,99875.16
2022-08-17T10:10:57.047Z,99881.56
2022-08-17T10:14:36.355Z,99866.34
2022-08-17T10:17:59.813Z,99867.28
2022-08-17T10:21:35.851Z,99865.63
2022-08-17T10:25:22.654Z,99871.59
2022-08-17T10:29:02.492Z,99859.62
2022-08-17T10:32:13.065Z,99866.53
2022-08-17T10:36:06.392Z,99867.84
2022-08-17T10:39:53.491Z,99856.37
2022-08-17T10:43:07.651Z,99860.94
2022-08-17T10:46:30.974Z,99853.81
2022-08-17T10:49:59.511Z,99856.34
2022-08-17T10:53:07.311Z,99851.34
2022-08-17T10:56:16.989Z,99855.69
2022-08-17T10:59:40.812Z,99856.00
2022-08-17T11:02:52.704Z,99860.78
2022-08-17T11:06:09.072Z,99854.03
2022-08-17T11:09:47.831Z,99843.28
2022-08-17T11:13:36.470Z,99842.22
2022-08-17T11:17:07.130Z,99831.72
2022-08-17T11:20:43.003Z,99831.72
2022-08-17T11:24:23.354Z,99822.59
2022-08-17T11:27:35.932Z,99833.16
2022-08-17T11:30:48.958Z,99824.78
2022-08-17T11:34:04.492Z,99829.47
2022-08-17T11:37:47.731Z,99819.00
2022-08-17T11:41:12.029Z,99814.28
2022-08-17T11:44:39.597Z,99812.16
2022-08-17T11:48:27.177Z,99810.03
2022-08-17T11:52:02.730Z,99802.94
2022-08-17T11:55:34.732Z,99794.03
2022-08-17T11:58:49.348Z,99795.19
2022-08-17T12:02:03.770Z,99791.66
2022-08-17T12:05:30.358Z,99801.84
2022-08-17T12:08:48.151Z,99795.63
2022-08-17T12:12:13.264Z,99793.16
2022-08-17T12:15:41.212Z,99786.00
2022-08-17T12:19:09.310Z,99795.84
2022-08-17T12:23:04.570Z,99790.75
2022-08-17T12:26:23.912Z,99784.09
2022-08-17T12:29:35.695Z,99786.59
2022-08-17T12:32:59.418Z,99774.56
2022-08-17T12:36:09.489Z,99771.09
2022-08-17T12:39:28.754Z,99777.69
2022-08-17T12:42:56.429Z,99769.19
2022-08-17T12:46:13.285Z,99765.47
2022-08-17T12:49:40.150Z,99772.28
2022-08-17T12:52:50.169Z,99773.50
2022-08-17T12:56:01.975Z,99758.81
2022-08-17T12:59:07.823Z,99755.78
2022-08-17T13:02:33.450Z,99757.09
2022-08-17T13:05:46.529Z,99762.03
2022-08-17T13:08:54.670Z,99764.19
2022-08-17T13:12:05.042Z,99753.66
2022-08-17T13:15:30.910Z,99744.00
2022-08-17T13:18:52.409Z,99751.59
2022-08-17T13:22:02.066Z,99742.81
2022-08-17T13:25:32.015Z,99744.84
2022-08-17T13:28:38.294Z,99739.41
2022-08-17T13:31:52.933Z,99735.34
2022-08-17T13:35:39.242Z,99732.09
2022-08-17T13:38:53.050Z,99723.47
2022-08-17T13:42:02.511Z,99726.63
2022-08-17T13:45:40.569Z,99719.84
2022-08-17T13:49:05.470Z,99720.69
2022-08-17T13:52:38.086Z,99714.34
2022-08-17T13:56:02.659Z,99716.25
2022-08-17T13:59:53.900Z,99708.44
2022-08-17T14:03:06.508Z,99718.28
2022-08-17T14:06:13.184Z,99712.75
2022-08-17T14:10:09.576Z,99722.19
2022-08-17T14:13:16.120Z,99717.53
2022-08-17T14:16:42.964Z,99725.97
2022-08-17T14:19:48.928Z,99733.75
2022-08-17T14:22:58.869Z,99726.59
2022-08-17T14:26:07.130Z,99722.62
2022-08-17T14:29:19.491Z,99716.31
2022-08-17T14:32:38.531Z,99708.66
2022-08-17T14:35:47.951Z,99708.34
2022-08-17T14:38:57.991Z,99704.91
2022-08-17T14:42:07.538Z,99714.19
2022-08-17T14:45:30.270Z,99710.31
2022-08-17T14:48:41.629Z,99711.19
2022-08-17T14:51:50.630Z,99715.34
2022-08-17T14:55:03.602Z,99720.28
2022-08-17T14:58:13.460Z,99718.25
2022-08-17T15:01:22.486Z,99714.66
2022-08-17T15:04:30.268Z,99711.94
2022-08-17T15:07:37.384Z,99721.38
2022-08-17T15:10:47.072Z,99717.50
2022-08-17T15:13:55.014Z,99723.88
2022-08-17T15:17:03.731Z,99707.19
2022-08-17T15:20:14.902Z,99704.81
2022-08-17T15:23:27.076Z,99715.50
2022-08-17T15:26:33.624Z,99707.62
2022-08-17T15:29:39.841Z,99705.66
2022-08-17T15:32:51.159Z,99697.66
2022-08-17T15:36:10.794Z,99701.66
2022-08-17T15:39:19.520Z,99707.94
2022-08-17T15:42:28.415Z,99712.75
2022-08-17T15:45:36.327Z,99702.44
2022-08-17T15:48:54.430Z,99702.97
2022-08-17T15:52:02.715Z,99698.72
2022-08-17T15:55:16.587Z,99700.88
2022-08-17T15:58:30.048Z,99705.59
2022-08-17T16:01:45.475Z,99700.31
2022-08-17T16:05:20.052Z,99701.47
2022-08-17T16:08:27.693Z,99687.34
2022-08-17T16:11:35.167Z,99694.63
2022-08-17T16:14:42.813Z,99696.03
2022-08-17T16:17:50.573Z,99693.97
2022-08-17T16:20:59.031Z,99695.72
2022-08-17T16:24:14.987Z,99703.81
2022-08-17T16:27:23.701Z,99697.69
2022-08-17T16:30:33.569Z,99698.84
2022-08-17T16:34:09.018Z,99704.19
2022-08-17T16:37:20.934Z,99701.13
2022-08-17T16:40:35.635Z,99705.56
2022-08-17T16:43:57.885Z,99691.31
2022-08-17T16:47:03.713Z,99693.91
2022-08-17T16:50:12.969Z,99697.91
2022-08-17T16:53:19.617Z,99695.87
2022-08-17T16:56:26.255Z,99690.88
2022-08-17T16:59:40.925Z,99687.31
2022-08-17T17:03:26.163Z,99697.22
2022-08-17T17:06:42.430Z,99689.91
2022-08-17T17:09:49.916Z,99700.03
2022-08-17T17:13:02.616Z,99701.25
2022-08-17T17:16:54.235Z,99696.09
2022-08-17T17:20:27.390Z,99695.16
2022-08-17T17:24:01.210Z,99696.28
2022-08-17T17:27:34.790Z,99701.41
2022-08-17T17:31:26.652Z,99688.56
2022-08-17T17:34:36.992Z,99694.72
2022-08-17T17:37:46.457Z,99694.75
2022-08-17T17:41:07.951Z,99694.38
2022-08-17T17:44:17.987Z,99700.41
2022-08-17T17:47:28.909Z,99697.88
2022-08-17T17:52:06.483Z,99706.72
2022-08-17T17:55:16.191Z,99705.13
2022-08-17T17:58:23.215Z,99710.00
2022-08-17T18:02:06.106Z,99720.13
2022-08-17T18:05:44.564Z,99702.38
2022-08-17T18:09:18.010Z,99709.75
2022-08-17T18:12:40.815Z,99708.34
2022-08-17T18:15:55.508Z,99715.88
2022-08-17T18:19:04.088Z,99712.69
2022-08-17T18:22:21.991Z,99714.66
2022-08-17T18:25:51.751Z,99717.09
2022-08-17T18:29:02.132Z,99717.50
2022-08-17T18:32:32.772Z,99726.72
2022-08-17T18:35:44.269Z,99724.50
2022-08-17T18:38:51.692Z,99729.34
2022-08-17T18:42:06.429Z,99736.50
2022-08-17T18:45:41.170Z,99743.16
2022-08-17T18:48:59.427Z,99742.84
2022-08-17T18:52:33.691Z,99745.97
2022-08-17T18:55:41.870Z,99749.06
2022-08-17T18:59:26.331Z,99752.16
2022-08-17T19:02:45.113Z,99753.62
2022-08-17T19:06:30.491Z,99752.62
2022-08-17T19:09:39.874Z,99749.25
2022-08-17T19:13:15.132Z,99759.28
2022-08-17T19:17:01.355Z,99750.16
2022-08-17T19:20:24.235Z,99763.47
2022-08-17T19:24:10.272Z,99754.69
2022-08-17T19:27:46.395Z,99755.53
2022-08-17T19:31:11.255Z,99743.13
2022-08-17T19:34:30.242Z,99747.75
2022-08-17T19:37:53.472Z,99749.41
2022-08-17T19:41:13.203Z,99754.84
2022-08-17T19:45:04.387Z,99749.72
2022-08-17T19:48:18.211Z,99752.72
2022-08-17T19:51:42.071Z,99747.31
2022-08-17T19:55:00.450Z,99743.78
2022-08-17T19:58:36.110Z,99743.53
2022-08-17T20:02:01.075Z,99745.69
2022-08-17T20:06:10.893Z,99753.75
2022-08-17T20:09:29.762Z,99745.41
2022-08-17T20:12:43.772Z,99741.31
2022-08-17T20:15:51.430Z,99744.28
2022-08-17T20:19:22.589Z,99749.59
2022-08-17T20:22:56.390Z,99746.62
2022-08-17T20:26:22.710Z,99740.94
2022-08-17T20:30:00.692Z,99750.03
2022-08-17T20:33:22.093Z,99747.59
2022-08-17T20:36:52.327Z,99759.34
2022-08-17T20:39:58.503Z,99762.81
2022-08-17T20:43:39.809Z,99757.97
2022-08-17T20:47:04.292Z,99752.03
2022-08-17T20:50:32.493Z,99753.84
2022-08-17T20:53:51.590Z,99742.50
2022-08-17T20:57:01.213Z,99752.13
2022-08-17T21:00:23.110Z,99746.16
2022-08-17T21:03:30.410Z,99753.06
2022-08-17T21:07:42.639Z,99757.34
2022-08-17T21:10:53.151Z,99756.25
2022-08-17T21:14:18.972Z,99761.84
2022-08-17T21:17:32.252Z,99766.59
2022-08-17T21:21:05.400Z,99777.56
2022-08-17T21:24:26.990Z,99770.50
2022-08-17T21:28:13.933Z,99765.37
2022-08-17T21:31:50.070Z,99771.00
2022-08-17T21:35:08.792Z,99772.28
2022-08-17T21:38:19.171Z,99779.94
2022-08-17T21:41:30.712Z,99783.34
2022-08-17T21:44:41.091Z,99785.50
2022-08-17T21:47:53.320Z,99795.09
2022-08-17T21:51:22.970Z,99807.62
2022-08-17T21:54:33.391Z,99808.66
2022-08-17T21:57:53.244Z,99813.72
2022-08-17T22:01:26.003Z,99806.94
2022-08-17T22:04:45.752Z,99809.59
2022-08-17T22:08:04.591Z,99808.69
2022-08-17T22:11:14.290Z,99819.34
2022-08-17T22:14:24.075Z,99827.78
2022-08-17T22:17:36.202Z,99831.22
2022-08-17T22:20:42.012Z,99834.13
2022-08-17T22:24:10.372Z,99831.69
2022-08-17T22:27:19.484Z,99835.63
2022-08-17T22:30:41.071Z,99836.88
2022-08-17T22:33:53.578Z,99832.47
2022-08-17T22:37:27.680Z,99832.97
2022-08-17T22:40:37.014Z,99827.84
2022-08-17T22:43:44.949Z,99831.25
2022-08-17T22:47:03.955Z,99826.72
2022-08-17T22:50:30.013Z,99821.03
2022-08-17T22:53:57.770Z,99828.97
2022-08-17T22:57:27.774Z,99830.53
2022-08-17T23:00:44.397Z,99824.03
2022-08-17T23:04:13.815Z,99818.94
2022-08-17T23:07:21.872Z,99814.75
2022-08-17T23:10:30.172Z,99813.59
2022-08-17T23:13:39.214Z,99824.06
2022-08-17T23:16:46.903Z,99816.78
2022-08-17T23:19:54.633Z,99809.16
2022-08-17T23:23:02.573Z,99801.38
2022-08-17T23:26:13.153Z,99800.69
2022-08-17T23:29:28.392Z,99798.84
2022-08-17T23:32:38.093Z,99795.09
2022-08-17T23:36:02.913Z,99787.31
2022-08-17T23:39:10.239Z,99785.88
2022-08-17T23:42:24.171Z,99781.00
2022-08-17T23:45:32.012Z,99779.63
2022-08-17T23:48:39.892Z,99772.09
2022-08-17T23:51:47.253Z,99766.97
2022-08-17T23:54:55.333Z,99766.91
2022-08-17T23:58:03.394Z,99764.59
